Time;durP1;ratioP1;P1;durP2;ratioP2;P2;SDS_P1;SDS_P2;PMS_P1;PMS_P2;Temp;Humidity;BMP_temperature;BMP_pressure;BME280_temperature;BME280_humidity;BME280_pressure;Samples;Min_cycle;Max_cycle;Signal;HPM_P1;HPM_P2
2022/05/21 00:01:10;;;;;;;2.23;2.10;;;23.00;66.70;;;;;;5091860;28;20456;-73
2022/05/21 00:03:38;;;;;;;2.47;2.27;;;23.00;66.70;;;;;;5092556;28;20435;-73
2022/05/21 00:06:06;;;;;;;1.90;1.80;;;23.00;66.70;;;;;;5091439;28;20461;-73
2022/05/21 00:08:35;;;;;;;2.67;2.20;;;23.00;66.80;;;;;;5086443;28;20521;-73
2022/05/21 00:11:04;;;;;;;2.20;2.00;;;23.00;68.00;;;;;;5092569;28;20480;-73
2022/05/21 00:13:32;;;;;;;2.07;1.97;;;23.00;66.80;;;;;;5080313;28;20538;-73
2022/05/21 00:16:01;;;;;;;2.20;2.10;;;23.10;66.80;;;;;;5091808;28;20979;-73
2022/05/21 00:18:29;;;;;;;2.13;2.03;;;23.00;66.70;;;;;;5092681;28;20438;-72
2022/05/21 00:20:57;;;;;;;2.40;2.20;;;23.00;66.70;;;;;;5072592;28;20451;-73
2022/05/21 00:23:29;;;;;;;2.20;2.00;;;23.00;66.70;;;;;;5089624;28;20985;-73
2022/05/21 00:25:59;;;;;;;2.17;2.07;;;23.00;66.70;;;;;;5091807;28;20636;-73
2022/05/21 00:28:28;;;;;;;2.47;1.77;;;23.00;66.70;;;;;;5090932;28;20476;-73
2022/05/21 00:30:57;;;;;;;1.90;1.80;;;23.00;66.70;;;;;;5091603;28;20863;-73
2022/05/21 00:33:28;;;;;;;3.17;2.87;;;22.90;66.60;;;;;;5092333;28;20433;-73
2022/05/21 00:35:56;;;;;;;3.33;2.13;;;22.90;65.70;;;;;;5091342;28;20502;-73
2022/05/21 00:38:25;;;;;;;2.80;2.20;;;23.00;66.30;;;;;;5076016;28;20950;-74
2022/05/21 00:40:54;;;;;;;1.90;1.80;;;22.90;66.60;;;;;;5091977;28;20926;-73
2022/05/21 00:43:41;;;;;;;2.23;2.13;;;22.90;66.60;;;;;;5087839;28;20520;-73
2022/05/21 00:46:12;;;;;;;1.63;1.53;;;22.90;66.40;;;;;;5091465;28;20506;-73
2022/05/21 00:48:43;;;;;;;1.97;1.83;;;22.90;66.20;;;;;;5092383;28;20434;-73
2022/05/21 00:51:15;;;;;;;1.60;1.50;;;22.90;66.60;;;;;;5074862;28;20491;-72
2022/05/21 00:53:46;;;;;;;3.23;1.80;;;22.90;66.60;;;;;;5091320;28;20461;-74
2022/05/21 00:56:16;;;;;;;1.90;1.80;;;22.90;66.50;;;;;;5091258;28;21084;-74
2022/05/21 01:01:35;;;;;;;1.83;1.73;;;22.90;66.40;;;;;;5075302;28;20463;-73
2022/05/21 01:04:05;;;;;;;1.47;1.37;;;22.90;66.30;;;;;;5089737;28;20856;-73
2022/05/21 01:06:34;;;;;;;1.90;1.80;;;22.90;66.50;;;;;;5087555;28;20534;-73
2022/05/21 01:09:02;;;;;;;2.50;2.30;;;22.80;66.70;;;;;;5091890;28;20458;-74
2022/05/21 01:11:30;;;;;;;2.20;1.73;;;22.90;66.10;;;;;;5091380;28;20497;-72
2022/05/21 01:14:00;;;;;;;1.33;1.23;;;22.80;66.00;;;;;;5081016;28;20445;-74
2022/05/21 01:16:29;;;;;;;1.63;1.53;;;22.80;66.20;;;;;;5092497;28;20555;-73
2022/05/21 01:18:57;;;;;;;2.60;2.20;;;22.80;65.90;;;;;;5111658;28;20434;-74
2022/05/21 01:21:27;;;;;;;1.70;1.60;;;22.80;66.00;;;;;;5101982;28;20883;-73
2022/05/21 01:23:56;;;;;;;2.07;1.97;;;22.80;66.30;;;;;;5091677;28;20469;-73
2022/05/21 01:26:24;;;;;;;1.60;1.50;;;22.80;65.80;;;;;;5090840;28;20475;-73
2022/05/21 01:28:52;;;;;;;2.20;2.07;;;22.80;65.80;;;;;;5072534;28;20552;-73
2022/05/21 01:31:20;;;;;;;2.20;1.53;;;22.80;65.90;;;;;;5077677;28;20479;-73
2022/05/21 01:33:49;;;;;;;1.40;1.30;;;22.80;65.90;;;;;;5091641;28;20433;-73
2022/05/21 01:36:17;;;;;;;1.80;1.70;;;22.70;65.60;;;;;;5086997;28;20472;-74
2022/05/21 01:38:47;;;;;;;1.73;1.63;;;22.70;65.40;;;;;;5096144;28;20468;-73
2022/05/21 01:41:16;;;;;;;2.17;1.90;;;22.70;65.60;;;;;;5095340;28;20480;-74
2022/05/21 01:46:32;;;;;;;1.60;1.50;;;22.70;65.40;;;;;;5094873;28;20524;-73
2022/05/21 01:49:03;;;;;;;1.90;1.80;;;22.70;65.30;;;;;;5095609;28;20444;-73
2022/05/21 01:51:31;;;;;;;1.50;1.40;;;22.70;64.80;;;;;;5087838;28;20997;-73
2022/05/21 01:54:02;;;;;;;1.57;1.47;;;22.70;65.20;;;;;;5095399;28;20436;-72
2022/05/21 01:56:31;;;;;;;1.70;1.60;;;22.70;65.40;;;;;;5094666;28;21008;-73
2022/05/21 01:58:59;;;;;;;2.00;1.80;;;22.70;65.00;;;;;;5077285;28;20490;-73
2022/05/21 02:01:28;;;;;;;2.03;1.50;;;22.60;64.80;;;;;;5094655;28;20467;-73
2022/05/21 02:03:56;;;;;;;1.70;1.60;;;22.60;65.20;;;;;;5078483;28;20526;-73
2022/05/21 02:06:24;;;;;;;1.27;1.17;;;22.60;65.20;;;;;;5093626;28;20906;-74
2022/05/21 02:08:53;;;;;;;2.43;2.13;;;22.60;64.50;;;;;;5095209;28;20492;-73
2022/05/21 02:11:21;;;;;;;2.23;1.40;;;22.60;64.80;;;;;;5093311;28;21046;-73
2022/05/21 02:13:50;;;;;;;1.70;1.60;;;22.60;64.60;;;;;;5078583;28;20442;-72
2022/05/21 02:16:18;;;;;;;1.50;1.40;;;22.60;64.80;;;;;;5094575;28;20815;-74
2022/05/21 02:18:46;;;;;;;1.50;1.40;;;22.50;64.70;;;;;;5094969;28;20420;-73
2022/05/21 02:21:14;;;;;;;1.47;1.20;;;22.50;64.80;;;;;;5091349;28;20501;-73
2022/05/21 02:23:42;;;;;;;1.70;1.50;;;22.50;64.30;;;;;;5094748;28;20462;-74
2022/05/21 02:26:11;;;;;;;1.60;1.50;;;22.50;64.70;;;;;;5093727;28;20464;-73
2022/05/21 02:28:39;;;;;;;3.23;1.90;;;22.50;64.90;;;;;;5077501;28;20446;-73
2022/05/21 02:31:08;;;;;;;1.80;1.50;;;22.50;64.70;;;;;;5093650;28;21025;-73
2022/05/21 02:33:36;;;;;;;1.70;1.60;;;22.50;64.90;;;;;;5095188;28;21122;-73
2022/05/21 02:36:07;;;;;;;1.50;1.40;;;22.50;64.80;;;;;;5090846;28;21031;-74
2022/05/21 02:41:21;;;;;;;2.03;1.10;;;22.50;64.40;;;;;;5079764;28;20466;-74
2022/05/21 02:43:50;;;;;;;3.90;1.63;;;22.50;64.40;;;;;;5075938;28;20914;-73
2022/05/21 02:46:19;;;;;;;1.20;1.10;;;22.50;64.30;;;;;;5093193;28;20468;-74
2022/05/21 02:48:47;;;;;;;1.77;1.67;;;22.40;64.20;;;;;;5094265;28;20427;-73
2022/05/21 02:51:15;;;;;;;1.33;1.23;;;22.40;64.30;;;;;;5084027;28;21029;-73
2022/05/21 02:53:44;;;;;;;1.53;1.40;;;22.40;64.60;;;;;;5074760;28;20440;-74
2022/05/21 02:56:14;;;;;;;1.97;1.17;;;22.40;64.70;;;;;;5091216;28;20497;-73
2022/05/21 02:58:42;;;;;;;1.80;1.40;;;22.40;64.60;;;;;;5076744;28;20538;-72
2022/05/21 03:01:12;;;;;;;1.70;1.60;;;22.40;64.60;;;;;;5091135;28;20463;-73
2022/05/21 03:03:41;;;;;;;1.30;1.20;;;22.40;64.60;;;;;;5079718;28;20813;-74
2022/05/21 03:06:09;;;;;;;3.10;1.20;;;22.40;64.70;;;;;;5074869;28;20494;-73
2022/05/21 03:11:23;;;;;;;2.70;1.53;;;22.40;64.50;;;;;;5084982;28;20877;-73
2022/05/21 03:13:51;;;;;;;1.47;1.30;;;22.40;64.40;;;;;;5074874;28;20886;-73
2022/05/21 03:16:19;;;;;;;2.30;1.17;;;22.40;65.90;;;;;;5090624;28;20455;-73
2022/05/21 03:18:49;;;;;;;1.13;1.03;;;22.30;64.30;;;;;;5096806;28;20459;-74
2022/05/21 03:21:18;;;;;;;1.40;1.20;;;22.40;64.60;;;;;;5092440;28;20509;-73
2022/05/21 03:23:47;;;;;;;1.20;1.10;;;22.40;64.60;;;;;;5088492;28;20513;-73
2022/05/21 03:26:15;;;;;;;1.67;1.23;;;22.40;64.40;;;;;;5093268;28;20494;-74
2022/05/21 03:28:43;;;;;;;1.27;1.00;;;22.30;64.40;;;;;;5089412;28;20929;-74
2022/05/21 03:31:12;;;;;;;1.40;1.30;;;22.30;64.30;;;;;;5093141;28;20469;-73
2022/05/21 03:33:41;;;;;;;1.80;1.23;;;22.30;64.10;;;;;;5075255;28;20431;-73
2022/05/21 03:36:10;;;;;;;0.90;0.90;;;22.30;64.10;;;;;;5076050;28;21018;-73
2022/05/21 03:38:38;;;;;;;0.97;0.97;;;22.30;64.30;;;;;;5085576;28;20442;-73
2022/05/21 03:41:07;;;;;;;1.60;1.50;;;22.30;64.40;;;;;;5092341;28;20466;-74
2022/05/21 03:43:36;;;;;;;1.00;0.90;;;22.20;63.90;;;;;;5076819;28;20993;-74
2022/05/21 03:46:05;;;;;;;1.10;1.00;;;22.20;64.10;;;;;;5075208;28;20601;-73
2022/05/21 03:48:33;;;;;;;2.03;1.17;;;22.20;65.50;;;;;;5093790;28;20840;-74
2022/05/21 03:51:01;;;;;;;2.20;1.50;;;22.20;64.20;;;;;;5082603;28;20608;-74
2022/05/21 03:53:31;;;;;;;1.30;1.20;;;22.20;64.20;;;;;;5078824;28;20507;-74
2022/05/21 03:55:59;;;;;;;1.53;1.30;;;22.20;64.20;;;;;;5092472;28;20503;-73
2022/05/21 03:58:27;;;;;;;2.07;1.13;;;22.20;64.30;;;;;;5081653;28;20952;-74
2022/05/21 04:00:55;;;;;;;1.30;1.20;;;22.20;63.50;;;;;;5092281;28;20450;-73
2022/05/21 04:03:24;;;;;;;1.60;1.20;;;22.20;63.70;;;;;;5074608;28;20932;-73
2022/05/21 04:05:55;;;;;;;2.70;1.70;;;22.20;64.00;;;;;;5092080;28;20974;-73
2022/05/21 04:08:24;;;;;;;1.40;1.30;;;22.10;65.10;;;;;;5065048;28;20434;-73
2022/05/21 04:10:53;;;;;;;1.40;1.30;;;22.20;64.00;;;;;;5092632;28;20422;-73
2022/05/21 04:13:22;;;;;;;3.17;1.23;;;22.10;63.20;;;;;;5091833;28;20470;-73
2022/05/21 04:15:50;;;;;;;1.30;1.20;;;22.10;63.60;;;;;;5073112;28;20482;-74
2022/05/21 04:18:18;;;;;;;1.07;0.87;;;22.10;63.80;;;;;;5092257;28;20505;-73
2022/05/21 04:20:46;;;;;;;1.10;1.00;;;22.10;63.70;;;;;;5092082;28;20916;-74
2022/05/21 04:23:14;;;;;;;1.63;1.27;;;22.10;64.00;;;;;;5088627;28;20803;-72
2022/05/21 04:25:43;;;;;;;1.50;1.20;;;22.10;63.50;;;;;;5091722;28;21005;-74
2022/05/21 04:28:18;;;;;;;1.67;1.20;;;22.10;63.70;;;;;;5090388;28;20439;-74
2022/05/21 04:30:46;;;;;;;2.40;1.40;;;22.10;63.90;;;;;;5091862;28;20445;-74
2022/05/21 04:33:14;;;;;;;1.30;1.20;;;22.10;63.80;;;;;;5092232;28;20487;-73
2022/05/21 04:38:27;;;;;;;1.40;1.30;;;22.00;63.50;;;;;;5070248;28;20457;-73
2022/05/21 04:40:55;;;;;;;1.10;1.00;;;22.00;63.40;;;;;;5089133;28;20920;-74
2022/05/21 04:43:24;;;;;;;1.20;1.10;;;22.10;63.80;;;;;;5090142;28;20856;-73
2022/05/21 04:45:54;;;;;;;1.13;0.97;;;22.00;63.70;;;;;;5090881;28;20473;-74
2022/05/21 04:48:23;;;;;;;1.60;1.20;;;22.00;63.60;;;;;;5092283;28;20464;-73
2022/05/21 04:50:51;;;;;;;1.90;1.13;;;22.00;63.60;;;;;;5085354;28;20584;-73
2022/05/21 04:53:19;;;;;;;1.10;1.00;;;22.00;63.10;;;;;;5084042;28;20945;-73
2022/05/21 04:55:47;;;;;;;1.80;1.50;;;22.00;63.80;;;;;;5091522;28;20499;-73
2022/05/21 04:58:15;;;;;;;1.20;1.10;;;22.00;63.40;;;;;;5088722;28;20442;-73
2022/05/21 05:00:44;;;;;;;1.50;1.20;;;22.00;63.60;;;;;;5091601;28;20426;-73
2022/05/21 05:03:13;;;;;;;1.80;1.10;;;22.00;63.60;;;;;;5092161;28;20475;-73
2022/05/21 05:05:42;;;;;;;1.13;1.00;;;22.00;63.60;;;;;;5088714;28;21968;-74
2022/05/21 05:08:12;;;;;;;1.90;1.00;;;21.90;63.50;;;;;;5078854;28;20481;-73
2022/05/21 05:10:40;;;;;;;2.30;1.30;;;22.00;63.60;;;;;;5091751;28;20468;-72
2022/05/21 05:13:09;;;;;;;1.63;1.13;;;22.00;63.40;;;;;;5085060;28;20497;-73
2022/05/21 05:15:37;;;;;;;2.20;0.97;;;21.90;63.60;;;;;;5091990;28;20442;-74
2022/05/21 05:18:08;;;;;;;1.27;0.90;;;21.90;63.60;;;;;;5090966;28;20473;-73
2022/05/21 05:20:37;;;;;;;1.30;0.93;;;21.90;63.70;;;;;;5086552;28;20446;-73
2022/05/21 05:23:06;;;;;;;2.13;1.27;;;21.90;63.60;;;;;;5076388;28;20464;-73
2022/05/21 05:25:35;;;;;;;1.70;1.33;;;21.90;63.60;;;;;;5091319;28;20453;-73
2022/05/21 05:28:03;;;;;;;2.30;1.20;;;21.90;63.60;;;;;;5087937;28;20998;-73
2022/05/21 05:30:31;;;;;;;2.77;1.53;;;21.90;63.70;;;;;;5091852;28;20446;-73
2022/05/21 05:33:00;;;;;;;1.23;1.03;;;21.90;63.60;;;;;;5090234;28;20508;-73
2022/05/21 05:35:29;;;;;;;2.40;1.20;;;21.90;63.80;;;;;;5091247;28;20430;-73
2022/05/21 05:37:57;;;;;;;1.70;1.50;;;21.90;63.60;;;;;;5081844;28;20919;-73
2022/05/21 05:40:26;;;;;;;1.30;0.90;;;21.90;64.20;;;;;;5090723;28;20859;-74
2022/05/21 05:42:54;;;;;;;1.30;1.10;;;21.90;63.70;;;;;;5083277;28;20895;-73
2022/05/21 05:45:22;;;;;;;1.20;1.10;;;21.80;63.50;;;;;;5089311;28;20895;-73
2022/05/21 05:47:50;;;;;;;2.53;1.53;;;21.90;63.70;;;;;;5090608;28;20464;-73
2022/05/21 05:50:18;;;;;;;1.13;0.97;;;21.80;63.20;;;;;;5086290;28;20477;-72
2022/05/21 05:52:47;;;;;;;1.40;1.10;;;21.80;63.60;;;;;;5061850;28;20495;-73
2022/05/21 05:55:16;;;;;;;1.80;1.10;;;21.80;63.50;;;;;;5091676;28;20831;-73
2022/05/21 05:57:44;;;;;;;2.67;1.70;;;21.80;63.40;;;;;;5089785;28;20473;-74
2022/05/21 06:00:11;;;;;;;2.47;1.60;;;21.80;63.10;;;;;;5091412;28;20461;-71
2022/05/21 06:05:27;;;;;;;1.77;0.80;;;21.70;63.30;;;;;;5089850;28;20556;-73
2022/05/21 06:07:59;;;;;;;1.70;1.40;;;21.70;63.50;;;;;;5079165;28;20917;-72
2022/05/21 06:10:30;;;;;;;2.07;1.10;;;21.70;63.10;;;;;;5091582;28;20956;-73
2022/05/21 06:12:59;;;;;;;3.10;1.30;;;21.70;63.20;;;;;;5083117;28;20476;-74
2022/05/21 06:15:27;;;;;;;1.63;1.30;;;21.70;62.90;;;;;;5072973;28;20522;-74
2022/05/21 06:17:56;;;;;;;1.20;1.10;;;21.70;63.10;;;;;;5090484;28;20982;-74
2022/05/21 06:20:27;;;;;;;1.90;1.27;;;21.70;63.00;;;;;;5089968;28;20436;-74
2022/05/21 06:22:57;;;;;;;1.50;1.20;;;21.70;63.10;;;;;;5092337;28;20988;-74
2022/05/21 06:25:29;;;;;;;1.37;1.10;;;21.60;63.10;;;;;;5094279;28;20445;-73
2022/05/21 06:27:57;;;;;;;1.27;1.17;;;21.70;63.10;;;;;;5082558;28;21061;-73
2022/05/21 06:30:27;;;;;;;1.50;1.40;;;21.70;63.10;;;;;;5074681;28;20473;-73
2022/05/21 06:32:55;;;;;;;1.20;1.10;;;21.60;63.00;;;;;;5092301;28;20463;-73
2022/05/21 06:35:24;;;;;;;1.70;1.50;;;21.70;63.10;;;;;;5093813;28;20775;-72
2022/05/21 06:37:52;;;;;;;1.77;1.40;;;21.60;63.00;;;;;;5090391;28;20472;-73
2022/05/21 06:40:22;;;;;;;1.20;1.10;;;21.70;63.10;;;;;;5094515;28;20530;-73
2022/05/21 06:42:50;;;;;;;1.63;1.07;;;21.60;62.70;;;;;;5091795;28;20469;-73
2022/05/21 06:45:18;;;;;;;1.40;1.30;;;21.60;62.70;;;;;;5094321;28;20511;-73
2022/05/21 06:47:46;;;;;;;1.50;1.10;;;21.60;63.00;;;;;;5093443;28;20461;-73
2022/05/21 06:50:14;;;;;;;1.40;1.30;;;21.60;63.00;;;;;;5074532;28;20842;-73
2022/05/21 06:52:42;;;;;;;1.97;1.30;;;21.60;62.80;;;;;;5091447;28;20467;-73
2022/05/21 06:55:12;;;;;;;1.03;0.93;;;21.60;62.90;;;;;;5093500;28;20951;-73
2022/05/21 06:57:42;;;;;;;3.33;1.67;;;21.60;62.60;;;;;;5091847;28;20553;-73
2022/05/21 07:00:11;;;;;;;2.70;1.30;;;21.60;62.60;;;;;;5094133;28;20444;-73
2022/05/21 07:02:40;;;;;;;1.40;1.30;;;21.60;62.70;;;;;;5089678;28;20605;-74
2022/05/21 07:07:54;;;;;;;2.63;1.60;;;21.60;62.40;;;;;;5108706;28;20867;-73
2022/05/21 07:10:24;;;;;;;1.63;1.27;;;21.60;62.20;;;;;;5110367;28;20818;-72
2022/05/21 07:12:54;;;;;;;2.10;1.70;;;21.60;61.70;;;;;;5089090;28;20474;-74
2022/05/21 07:15:22;;;;;;;2.13;1.60;;;21.60;61.70;;;;;;5073676;28;20415;-73
2022/05/21 07:17:50;;;;;;;3.97;1.20;;;21.60;61.70;;;;;;5078626;28;20526;-74
2022/05/21 07:20:21;;;;;;;2.63;1.40;;;21.60;62.00;;;;;;5093401;28;20449;-74
2022/05/21 07:22:50;;;;;;;1.50;1.40;;;21.60;61.80;;;;;;5093245;28;20534;-74
2022/05/21 07:25:21;;;;;;;2.37;1.20;;;21.60;61.90;;;;;;5095826;28;20803;-74
2022/05/21 07:27:51;;;;;;;3.17;1.40;;;21.50;61.40;;;;;;5086730;28;20496;-73
2022/05/21 07:30:21;;;;;;;2.23;1.20;;;21.60;61.70;;;;;;5086199;28;20484;-74
2022/05/21 07:32:51;;;;;;;2.00;1.20;;;21.60;62.00;;;;;;5093107;28;20465;-72
2022/05/21 07:35:20;;;;;;;1.37;1.13;;;21.50;61.90;;;;;;5096436;22;20572;-49
2022/05/21 07:37:51;;;;;;;1.87;1.30;;;21.50;62.00;;;;;;5066249;28;20573;-46
2022/05/21 07:40:24;;;;;;;2.47;1.70;;;21.50;61.90;;;;;;5047081;28;20469;-47
2022/05/21 07:42:54;;;;;;;2.23;1.63;;;21.50;61.90;;;;;;5060278;28;20474;-50
2022/05/21 07:45:25;;;;;;;2.00;1.00;;;21.50;61.80;;;;;;5064504;28;20832;-47
2022/05/21 07:47:54;;;;;;;2.27;1.47;;;21.50;62.00;;;;;;5052060;28;20458;-46
2022/05/21 07:50:23;;;;;;;1.27;1.10;;;21.50;62.00;;;;;;5060539;28;20469;-48
2022/05/21 07:52:52;;;;;;;3.27;1.10;;;21.50;62.10;;;;;;5060312;28;20462;-46
2022/05/21 07:55:21;;;;;;;1.30;1.20;;;21.50;62.10;;;;;;5063815;28;21033;-48
2022/05/21 07:57:51;;;;;;;2.30;1.63;;;21.50;63.40;;;;;;5063456;28;20474;-47
2022/05/21 08:00:21;;;;;;;2.23;1.73;;;21.50;61.60;;;;;;5064872;28;20528;-47
2022/05/21 08:02:51;;;;;;;2.10;1.23;;;21.50;61.80;;;;;;5041964;28;20658;-47
2022/05/21 08:05:26;;;;;;;1.90;1.20;;;21.50;61.90;;;;;;5084806;28;20456;-47
2022/05/21 08:07:55;;;;;;;1.50;1.10;;;21.40;61.60;;;;;;5064339;28;20470;-46
2022/05/21 08:10:28;;;;;;;1.20;1.10;;;21.40;62.60;;;;;;5046960;28;20775;-47
2022/05/21 08:12:58;;;;;;;2.93;1.70;;;21.50;61.60;;;;;;5055103;28;20559;-47
2022/05/21 08:15:29;;;;;;;3.47;1.50;;;21.40;61.40;;;;;;5055058;28;20442;-48
2022/05/21 08:18:04;;;;;;;3.53;1.67;;;21.40;61.70;;;;;;5063108;28;20527;-46
2022/05/21 08:20:36;;;;;;;1.60;1.43;;;21.40;61.70;;;;;;5063469;28;20437;-49
2022/05/21 08:28:39;;;;;;;1.80;1.30;;;21.40;62.00;;;;;;5061678;28;21013;-46
2022/05/21 08:31:08;;;;;;;4.03;1.70;;;21.40;61.90;;;;;;5076556;28;20458;-49
2022/05/21 08:33:39;;;;;;;1.83;1.30;;;21.40;61.70;;;;;;5063609;28;20469;-49
2022/05/21 08:36:19;;;;;;;2.83;1.13;;;21.40;61.70;;;;;;5051260;28;20508;-46
2022/05/21 08:38:48;;;;;;;3.07;1.43;;;21.40;61.60;;;;;;5048120;28;20437;-47
2022/05/21 08:41:22;;;;;;;1.30;1.20;;;21.40;61.80;;;;;;5063889;28;20484;-49
2022/05/21 08:43:59;;;;;;;1.50;1.40;;;21.30;62.00;;;;;;5049561;28;20438;-46
2022/05/21 08:46:38;;;;;;;1.50;1.20;;;21.30;62.00;;;;;;5061338;28;20469;-47
2022/05/21 08:49:09;;;;;;;2.73;1.37;;;21.30;62.20;;;;;;5056114;28;20436;-47
2022/05/21 08:51:47;;;;;;;2.13;1.30;;;21.30;61.90;;;;;;5054396;28;20470;-50
2022/05/21 08:54:24;;;;;;;1.40;1.30;;;21.30;62.10;;;;;;5044652;28;20410;-47
2022/05/21 08:56:57;;;;;;;1.90;1.30;;;21.30;62.10;;;;;;5060108;28;20822;-47
2022/05/21 08:59:31;;;;;;;1.70;1.40;;;21.30;62.20;;;;;;5043623;28;20867;-46
2022/05/21 09:01:59;;;;;;;2.77;1.40;;;21.30;62.20;;;;;;5045888;28;20532;-47
2022/05/21 09:04:33;;;;;;;4.10;1.60;;;21.30;62.20;;;;;;5063291;28;20430;-48
2022/05/21 09:07:04;;;;;;;4.20;1.40;;;21.30;61.90;;;;;;5060606;28;20947;-46
2022/05/21 09:09:46;;;;;;;2.30;1.60;;;21.30;61.90;;;;;;5063163;28;21007;-46
2022/05/21 09:12:19;;;;;;;2.67;1.20;;;21.30;61.20;;;;;;5057437;28;21001;-47
2022/05/21 09:14:52;;;;;;;1.43;1.33;;;21.20;61.30;;;;;;5052244;28;20469;-45
2022/05/21 09:17:24;;;;;;;3.40;1.60;;;21.20;61.50;;;;;;5044959;28;20470;-46
2022/05/21 09:19:57;;;;;;;1.53;1.40;;;21.20;61.60;;;;;;5057667;28;20889;-47
2022/05/21 09:22:32;;;;;;;1.50;1.37;;;21.20;61.30;;;;;;5050559;28;20479;-49
2022/05/21 09:25:19;;;;;;;1.30;1.20;;;21.20;61.40;;;;;;5062606;28;20436;-50
2022/05/21 09:27:49;;;;;;;2.60;1.77;;;21.20;61.40;;;;;;5058406;28;20474;-46
2022/05/21 09:30:24;;;;;;;1.40;1.30;;;21.20;61.20;;;;;;5064003;28;20480;-48
2022/05/21 09:32:54;;;;;;;1.20;1.10;;;21.20;61.10;;;;;;5060001;28;20964;-48
2022/05/21 09:35:26;;;;;;;1.60;1.37;;;21.20;61.50;;;;;;5042243;28;20443;-50
2022/05/21 09:37:55;;;;;;;1.63;1.53;;;21.20;61.50;;;;;;5052322;28;20989;-47
2022/05/21 09:40:34;;;;;;;1.70;1.43;;;21.20;61.20;;;;;;5063556;28;20429;-48
2022/05/21 09:45:53;;;;;;;1.33;1.13;;;21.20;61.30;;;;;;5061642;28;20434;-47
2022/05/21 09:48:23;;;;;;;3.67;1.93;;;21.20;61.40;;;;;;5063173;28;20949;-47
2022/05/21 09:50:57;;;;;;;2.47;1.50;;;21.20;60.90;;;;;;5060622;28;20426;-46
2022/05/21 09:53:33;;;;;;;3.10;1.50;;;21.20;61.00;;;;;;5049189;28;20445;-47
2022/05/21 09:56:05;;;;;;;3.60;1.77;;;21.20;60.60;;;;;;5062020;28;20434;-47
2022/05/21 09:58:36;;;;;;;2.27;1.40;;;21.20;60.80;;;;;;5050969;28;20525;-47
2022/05/21 10:01:07;;;;;;;1.87;1.43;;;21.10;60.50;;;;;;5052075;28;21208;-50
2022/05/21 10:03:40;;;;;;;2.17;1.40;;;21.10;60.70;;;;;;5067971;28;20488;-47
2022/05/21 10:06:26;;;;;;;4.40;1.80;;;21.10;60.60;;;;;;5043753;28;20487;-47
2022/05/21 10:11:57;;;;;;;2.10;1.33;;;21.10;60.80;;;;;;5059436;28;20466;-49
2022/05/21 10:14:33;;;;;;;1.40;1.10;;;21.10;60.70;;;;;;5045867;28;20917;-48
2022/05/21 10:17:13;;;;;;;1.63;1.30;;;21.20;61.00;;;;;;5062321;28;20868;-47
2022/05/21 10:19:47;;;;;;;2.77;1.47;;;21.10;61.10;;;;;;5067189;28;20656;-47
2022/05/21 10:22:31;;;;;;;1.70;1.50;;;21.20;61.20;;;;;;5049933;28;20512;-47
2022/05/21 10:25:07;;;;;;;1.70;1.43;;;21.10;61.10;;;;;;5047080;28;20427;-47
2022/05/21 10:27:58;;;;;;;2.30;1.67;;;21.10;60.30;;;;;;5048363;28;20463;-49
2022/05/21 10:30:33;;;;;;;2.93;1.90;;;21.10;60.00;;;;;;5067435;28;20517;-48
2022/05/21 10:33:24;;;;;;;6.00;2.07;;;21.10;59.90;;;;;;5066399;28;20466;-48
2022/05/21 10:36:19;;;;;;;2.07;1.40;;;21.10;60.30;;;;;;5060492;28;20447;-49
2022/05/21 10:39:05;;;;;;;2.07;1.20;;;21.10;60.30;;;;;;5047638;28;20807;-47
2022/05/21 10:41:49;;;;;;;4.13;1.53;;;21.10;61.20;;;;;;5057879;28;21011;-47
2022/05/21 10:44:30;;;;;;;2.53;1.47;;;21.10;60.40;;;;;;5061704;28;20466;-48
2022/05/21 10:47:06;;;;;;;2.90;1.40;;;21.10;60.30;;;;;;5066333;28;20524;-47
2022/05/21 10:50:08;;;;;;;1.80;1.33;;;21.10;60.00;;;;;;5065347;28;20429;-50
2022/05/21 10:52:56;;;;;;;2.37;1.30;;;21.10;60.50;;;;;;5065210;28;20460;-46
2022/05/21 10:55:41;;;;;;;2.53;1.43;;;21.10;60.30;;;;;;5064831;28;20452;-50
2022/05/21 10:58:37;;;;;;;2.30;1.70;;;21.10;60.00;;;;;;5051583;28;20471;-47
2022/05/21 11:01:16;;;;;;;2.77;1.47;;;21.10;59.70;;;;;;5060611;28;20529;-47
2022/05/21 11:04:01;;;;;;;2.43;1.50;;;21.10;59.90;;;;;;5066277;28;20437;-47
2022/05/21 11:07:03;;;;;;;2.27;1.77;;;21.10;59.70;;;;;;5057792;28;20467;-46
2022/05/21 11:09:41;;;;;;;3.33;1.67;;;21.10;59.50;;;;;;5029041;28;20477;-46
2022/05/21 11:12:59;;;;;;;3.47;1.37;;;21.10;59.70;;;;;;5065430;28;20475;-47
2022/05/21 11:16:02;;;;;;;1.93;1.40;;;21.10;59.10;;;;;;5045725;28;20760;-47
2022/05/21 11:19:02;;;;;;;3.13;1.67;;;21.10;59.30;;;;;;5052947;28;20499;-48
2022/05/21 11:21:38;;;;;;;2.33;1.60;;;21.10;59.70;;;;;;5061348;28;20473;-48
2022/05/21 11:24:13;;;;;;;2.20;1.70;;;21.10;60.20;;;;;;5046520;28;20450;-46
2022/05/21 11:26:59;;;;;;;2.07;1.63;;;21.10;59.60;;;;;;5033070;28;20223;-47
2022/05/21 11:29:48;;;;;;;2.60;1.77;;;21.10;59.40;;;;;;5047492;28;20423;-46
2022/05/21 11:38:26;;;;;;;2.00;1.60;;;21.10;59.20;;;;;;5060632;28;20872;-46
2022/05/21 11:48:01;;;;;;;2.90;1.40;;;21.00;59.30;;;;;;5042694;28;20527;-47
2022/05/21 11:51:36;;;;;;;3.83;1.40;;;21.10;59.20;;;;;;5054837;28;20446;-47
2022/05/21 11:54:08;;;;;;;3.10;1.73;;;21.10;59.60;;;;;;4964526;28;20458;-47
2022/05/21 11:57:03;;;;;;;1.90;1.67;;;21.10;59.50;;;;;;5044938;28;20466;-50
2022/05/21 11:59:50;;;;;;;3.80;1.37;;;21.10;59.40;;;;;;5065462;28;20445;-46
2022/05/21 12:03:02;;;;;;;1.90;1.47;;;21.10;60.00;;;;;;5076912;28;20550;-47
2022/05/21 12:05:56;;;;;;;2.20;1.60;;;21.10;60.10;;;;;;5047269;28;20802;-46
2022/05/21 12:08:48;;;;;;;1.93;1.50;;;21.10;59.90;;;;;;5064128;28;20484;-49
2022/05/21 12:11:53;;;;;;;3.30;1.50;;;21.10;59.80;;;;;;5032426;28;20457;-48
2022/05/21 12:14:30;;;;;;;2.00;1.63;;;21.10;59.70;;;;;;5052440;28;20430;-46
2022/05/21 12:17:42;;;;;;;2.57;1.17;;;21.10;60.00;;;;;;5061722;28;20485;-47
2022/05/21 12:20:16;;;;;;;2.10;1.23;;;21.00;59.70;;;;;;5062060;28;20492;-46
2022/05/21 12:22:55;;;;;;;3.20;1.97;;;21.00;60.00;;;;;;5045115;28;20467;-47
2022/05/21 12:29:21;;;;;;;1.63;1.30;;;21.00;59.70;;;;;;5056739;28;21011;-50
2022/05/21 12:32:33;;;;;;;2.13;1.50;;;21.10;59.40;;;;;;5062509;28;20466;-48
2022/05/21 12:35:48;;;;;;;1.53;1.40;;;21.00;59.20;;;;;;5061416;28;20506;-46
2022/05/21 12:38:52;;;;;;;1.83;1.30;;;21.10;59.90;;;;;;5054688;28;20440;-46
2022/05/21 12:41:30;;;;;;;1.43;1.10;;;21.10;59.80;;;;;;5064505;28;20474;-46
2022/05/21 12:43:59;;;;;;;1.57;1.20;;;21.00;60.00;;;;;;5048384;28;20502;-50
2022/05/21 12:46:32;;;;;;;1.57;1.47;;;21.00;60.00;;;;;;5062261;28;20554;-45
2022/05/21 12:49:08;;;;;;;1.57;1.30;;;21.10;59.70;;;;;;5066417;28;20832;-45
2022/05/21 12:51:46;;;;;;;2.00;1.40;;;21.00;59.60;;;;;;5057348;28;20475;-44
2022/05/21 12:54:20;;;;;;;1.80;1.30;;;21.10;59.70;;;;;;5065439;28;20462;-44
2022/05/21 12:56:51;;;;;;;1.50;1.37;;;21.00;59.40;;;;;;5064950;28;20992;-44
2022/05/21 12:59:23;;;;;;;1.40;1.30;;;21.10;60.10;;;;;;5061934;28;20419;-46
2022/05/21 13:02:01;;;;;;;1.90;1.27;;;21.00;59.30;;;;;;5068070;28;20553;-45
2022/05/21 13:04:37;;;;;;;1.37;1.27;;;21.00;59.60;;;;;;5053564;28;20915;-45
2022/05/21 13:07:14;;;;;;;1.60;1.50;;;21.00;59.20;;;;;;5056339;28;20481;-47
2022/05/21 13:09:57;;;;;;;2.60;1.33;;;21.00;59.50;;;;;;5067416;28;20463;-45
2022/05/21 13:12:31;;;;;;;2.30;1.90;;;21.00;59.40;;;;;;5064351;28;20474;-44
2022/05/21 13:15:03;;;;;;;2.53;1.63;;;21.10;59.60;;;;;;5066972;28;20532;-44
2022/05/21 13:17:45;;;;;;;2.33;1.50;;;21.00;59.40;;;;;;5066692;28;20470;-44
2022/05/21 13:20:18;;;;;;;2.23;1.30;;;21.00;59.40;;;;;;5067954;28;20611;-47
2022/05/21 13:23:13;;;;;;;1.83;1.37;;;21.00;59.40;;;;;;5058628;28;20470;-47
2022/05/21 13:25:50;;;;;;;3.53;1.30;;;21.10;59.80;;;;;;5066472;28;20522;-46
2022/05/21 13:28:21;;;;;;;1.30;1.20;;;21.00;59.40;;;;;;5060371;28;20461;-45
2022/05/21 13:30:51;;;;;;;1.73;1.60;;;21.00;59.20;;;;;;5063191;28;20437;-45
2022/05/21 13:33:34;;;;;;;2.03;1.40;;;21.00;59.00;;;;;;5070559;28;20493;-46
2022/05/21 13:36:08;;;;;;;3.00;1.10;;;21.00;59.60;;;;;;5066159;28;20513;-46
2022/05/21 13:38:41;;;;;;;1.20;1.10;;;21.10;59.00;;;;;;5049575;28;20443;-46
2022/05/21 13:41:19;;;;;;;1.03;0.93;;;21.00;58.50;;;;;;5066678;28;20457;-46
2022/05/21 13:43:50;;;;;;;1.40;1.27;;;21.00;58.80;;;;;;5066969;28;20444;-50
2022/05/21 13:46:25;;;;;;;1.67;1.40;;;21.10;59.60;;;;;;5059904;28;21109;-46
2022/05/21 13:49:19;;;;;;;1.10;1.00;;;21.10;59.40;;;;;;5079029;28;20496;-45
2022/05/21 13:51:53;;;;;;;1.60;1.20;;;21.10;59.40;;;;;;5056892;28;20479;-46
2022/05/21 13:54:34;;;;;;;1.63;1.30;;;21.10;58.70;;;;;;5047561;28;20794;-46
2022/05/21 13:57:21;;;;;;;1.27;0.87;;;21.10;59.00;;;;;;5064782;22;20983;-48
2022/05/21 14:00:16;;;;;;;2.43;1.10;;;21.10;59.20;;;;;;5064489;28;20455;-47
2022/05/21 14:03:23;;;;;;;1.33;1.23;;;21.10;59.60;;;;;;5055765;28;21027;-49
2022/05/21 14:05:55;;;;;;;2.50;1.33;;;21.10;58.90;;;;;;5063943;28;20473;-48
2022/05/21 14:08:35;;;;;;;1.00;1.00;;;21.10;58.80;;;;;;5067286;28;20444;-49